sensor_id;sensor_type;location;lat;lon;timestamp;P1;durP1;ratioP1;P2;durP2;ratioP2
13816;SDS011;6979;52.116;5.286;2024-01-15T00:01:11;6.67;;;1.63;;
13816;SDS011;6979;52.116;5.286;2024-01-15T00:03:37;3.17;;;1.57;;
13816;SDS011;6979;52.116;5.286;2024-01-15T00:06:04;4.90;;;1.50;;
13816;SDS011;6979;52.116;5.286;2024-01-15T00:08:31;3.23;;;1.37;;
13816;SDS011;6979;52.116;5.286;2024-01-15T00:10:58;6.70;;;2.47;;
13816;SDS011;6979;52.116;5.286;2024-01-15T00:13:25;3.50;;;1.20;;
13816;SDS011;6979;52.116;5.286;2024-01-15T00:15:52;5.90;;;1.83;;
13816;SDS011;6979;52.116;5.286;2024-01-15T00:18:20;8.00;;;2.13;;
13816;SDS011;6979;52.116;5.286;2024-01-15T00:20:47;6.77;;;2.30;;
13816;SDS011;6979;52.116;5.286;2024-01-15T00:23:14;3.47;;;1.70;;
13816;SDS011;6979;52.116;5.286;2024-01-15T00:25:41;5.53;;;1.40;;
13816;SDS011;6979;52.116;5.286;2024-01-15T00:28:07;10.53;;;2.57;;
13816;SDS011;6979;52.116;5.286;2024-01-15T00:30:34;5.67;;;2.00;;
13816;SDS011;6979;52.116;5.286;2024-01-15T00:33:04;5.03;;;1.53;;
13816;SDS011;6979;52.116;5.286;2024-01-15T00:35:33;3.83;;;1.43;;
13816;SDS011;6979;52.116;5.286;2024-01-15T00:38:00;5.47;;;1.60;;
13816;SDS011;6979;52.116;5.286;2024-01-15T00:40:27;3.60;;;1.60;;
13816;SDS011;6979;52.116;5.286;2024-01-15T00:42:54;6.27;;;1.80;;
13816;SDS011;6979;52.116;5.286;2024-01-15T00:45:21;4.43;;;1.77;;
13816;SDS011;6979;52.116;5.286;2024-01-15T00:47:48;7.87;;;1.80;;
13816;SDS011;6979;52.116;5.286;2024-01-15T00:50:15;5.37;;;1.60;;
13816;SDS011;6979;52.116;5.286;2024-01-15T00:52:43;5.03;;;1.90;;
13816;SDS011;6979;52.116;5.286;2024-01-15T00:55:10;3.47;;;1.53;;
13816;SDS011;6979;52.116;5.286;2024-01-15T00:57:37;5.47;;;2.00;;
13816;SDS011;6979;52.116;5.286;2024-01-15T01:00:04;7.10;;;2.13;;
13816;SDS011;6979;52.116;5.286;2024-01-15T01:02:34;3.50;;;1.40;;
13816;SDS011;6979;52.116;5.286;2024-01-15T01:05:01;3.90;;;1.50;;
13816;SDS011;6979;52.116;5.286;2024-01-15T01:07:28;4.07;;;1.70;;
13816;SDS011;6979;52.116;5.286;2024-01-15T01:09:56;3.90;;;1.67;;
13816;SDS011;6979;52.116;5.286;2024-01-15T01:12:23;6.37;;;1.80;;
13816;SDS011;6979;52.116;5.286;2024-01-15T01:14:50;4.57;;;1.57;;
13816;SDS011;6979;52.116;5.286;2024-01-15T01:17:19;6.73;;;1.90;;
13816;SDS011;6979;52.116;5.286;2024-01-15T01:19:46;4.50;;;1.43;;
13816;SDS011;6979;52.116;5.286;2024-01-15T01:22:16;6.47;;;1.60;;
13816;SDS011;6979;52.116;5.286;2024-01-15T01:24:43;5.83;;;1.90;;
13816;SDS011;6979;52.116;5.286;2024-01-15T01:27:11;7.67;;;1.80;;
13816;SDS011;6979;52.116;5.286;2024-01-15T01:29:38;7.97;;;2.40;;
13816;SDS011;6979;52.116;5.286;2024-01-15T01:32:05;5.70;;;1.57;;
13816;SDS011;6979;52.116;5.286;2024-01-15T01:34:32;6.87;;;1.30;;
13816;SDS011;6979;52.116;5.286;2024-01-15T01:36:59;4.90;;;1.63;;
13816;SDS011;6979;52.116;5.286;2024-01-15T01:39:26;11.73;;;2.10;;
13816;SDS011;6979;52.116;5.286;2024-01-15T01:41:53;6.50;;;1.70;;
13816;SDS011;6979;52.116;5.286;2024-01-15T01:44:21;6.87;;;1.50;;
13816;SDS011;6979;52.116;5.286;2024-01-15T01:46:48;7.97;;;2.10;;
13816;SDS011;6979;52.116;5.286;2024-01-15T01:49:15;4.83;;;1.67;;
13816;SDS011;6979;52.116;5.286;2024-01-15T01:51:43;4.30;;;1.37;;
13816;SDS011;6979;52.116;5.286;2024-01-15T01:54:11;4.80;;;1.77;;
13816;SDS011;6979;52.116;5.286;2024-01-15T01:56:39;4.97;;;1.50;;
13816;SDS011;6979;52.116;5.286;2024-01-15T01:59:09;4.77;;;1.63;;
13816;SDS011;6979;52.116;5.286;2024-01-15T02:01:38;2.67;;;1.00;;
13816;SDS011;6979;52.116;5.286;2024-01-15T02:04:06;3.13;;;1.40;;
13816;SDS011;6979;52.116;5.286;2024-01-15T02:06:33;7.57;;;1.63;;
13816;SDS011;6979;52.116;5.286;2024-01-15T02:09:00;5.53;;;1.50;;
13816;SDS011;6979;52.116;5.286;2024-01-15T02:11:27;4.40;;;2.13;;
13816;SDS011;6979;52.116;5.286;2024-01-15T02:13:53;5.53;;;1.43;;
13816;SDS011;6979;52.116;5.286;2024-01-15T02:16:20;7.10;;;2.07;;
13816;SDS011;6979;52.116;5.286;2024-01-15T02:18:48;4.83;;;1.20;;
13816;SDS011;6979;52.116;5.286;2024-01-15T02:21:15;3.00;;;0.70;;
13816;SDS011;6979;52.116;5.286;2024-01-15T02:23:43;2.20;;;0.83;;
13816;SDS011;6979;52.116;5.286;2024-01-15T02:26:10;2.40;;;0.50;;
13816;SDS011;6979;52.116;5.286;2024-01-15T02:28:38;1.37;;;0.23;;
13816;SDS011;6979;52.116;5.286;2024-01-15T02:31:06;0.20;;;0.20;;
13816;SDS011;6979;52.116;5.286;2024-01-15T02:33:33;1.13;;;0.40;;
13816;SDS011;6979;52.116;5.286;2024-01-15T02:36:00;1.23;;;0.60;;
13816;SDS011;6979;52.116;5.286;2024-01-15T02:38:27;1.70;;;0.50;;
13816;SDS011;6979;52.116;5.286;2024-01-15T02:40:58;1.60;;;0.40;;
13816;SDS011;6979;52.116;5.286;2024-01-15T02:43:25;2.10;;;0.50;;
13816;SDS011;6979;52.116;5.286;2024-01-15T02:45:52;2.17;;;0.70;;
13816;SDS011;6979;52.116;5.286;2024-01-15T02:48:18;1.33;;;1.03;;
13816;SDS011;6979;52.116;5.286;2024-01-15T02:50:45;2.07;;;0.70;;
13816;SDS011;6979;52.116;5.286;2024-01-15T02:53:12;2.80;;;0.60;;
13816;SDS011;6979;52.116;5.286;2024-01-15T02:55:39;2.00;;;0.73;;
13816;SDS011;6979;52.116;5.286;2024-01-15T02:58:07;2.83;;;0.87;;
13816;SDS011;6979;52.116;5.286;2024-01-15T03:00:34;3.07;;;1.10;;
13816;SDS011;6979;52.116;5.286;2024-01-15T03:03:06;2.57;;;0.93;;
13816;SDS011;6979;52.116;5.286;2024-01-15T03:05:33;4.20;;;1.20;;
13816;SDS011;6979;52.116;5.286;2024-01-15T03:08:10;2.10;;;0.73;;
13816;SDS011;6979;52.116;5.286;2024-01-15T03:10:39;1.17;;;0.53;;
13816;SDS011;6979;52.116;5.286;2024-01-15T03:13:07;2.30;;;1.33;;
13816;SDS011;6979;52.116;5.286;2024-01-15T03:15:34;3.40;;;1.10;;
13816;SDS011;6979;52.116;5.286;2024-01-15T03:18:01;2.53;;;1.23;;
13816;SDS011;6979;52.116;5.286;2024-01-15T03:20:28;3.10;;;1.30;;
13816;SDS011;6979;52.116;5.286;2024-01-15T03:22:54;5.77;;;0.83;;
13816;SDS011;6979;52.116;5.286;2024-01-15T03:25:21;2.43;;;0.93;;
13816;SDS011;6979;52.116;5.286;2024-01-15T03:27:57;3.33;;;1.10;;
13816;SDS011;6979;52.116;5.286;2024-01-15T03:30:25;2.23;;;1.33;;
13816;SDS011;6979;52.116;5.286;2024-01-15T03:32:52;4.37;;;1.10;;
13816;SDS011;6979;52.116;5.286;2024-01-15T03:35:19;6.70;;;1.33;;
13816;SDS011;6979;52.116;5.286;2024-01-15T03:37:46;2.90;;;0.83;;
13816;SDS011;6979;52.116;5.286;2024-01-15T03:40:12;1.27;;;0.73;;
13816;SDS011;6979;52.116;5.286;2024-01-15T03:42:40;3.67;;;1.07;;
13816;SDS011;6979;52.116;5.286;2024-01-15T03:45:13;3.37;;;1.00;;
13816;SDS011;6979;52.116;5.286;2024-01-15T03:47:41;2.43;;;1.00;;
13816;SDS011;6979;52.116;5.286;2024-01-15T03:50:08;1.20;;;0.77;;
13816;SDS011;6979;52.116;5.286;2024-01-15T03:52:35;2.03;;;0.90;;
13816;SDS011;6979;52.116;5.286;2024-01-15T03:55:03;2.10;;;0.60;;
13816;SDS011;6979;52.116;5.286;2024-01-15T03:57:31;3.07;;;1.03;;
13816;SDS011;6979;52.116;5.286;2024-01-15T03:59:58;3.53;;;1.50;;
13816;SDS011;6979;52.116;5.286;2024-01-15T04:02:26;1.23;;;0.70;;
13816;SDS011;6979;52.116;5.286;2024-01-15T04:04:54;2.80;;;0.90;;
13816;SDS011;6979;52.116;5.286;2024-01-15T04:07:24;2.43;;;0.90;;
13816;SDS011;6979;52.116;5.286;2024-01-15T04:09:50;1.50;;;0.70;;
13816;SDS011;6979;52.116;5.286;2024-01-15T04:12:17;1.60;;;1.13;;
13816;SDS011;6979;52.116;5.286;2024-01-15T04:14:44;2.23;;;0.73;;
13816;SDS011;6979;52.116;5.286;2024-01-15T04:17:11;3.13;;;0.87;;
13816;SDS011;6979;52.116;5.286;2024-01-15T04:19:38;5.70;;;1.27;;
13816;SDS011;6979;52.116;5.286;2024-01-15T04:22:06;6.30;;;2.20;;
13816;SDS011;6979;52.116;5.286;2024-01-15T04:24:33;2.97;;;1.07;;
13816;SDS011;6979;52.116;5.286;2024-01-15T04:26:59;3.43;;;1.00;;
13816;SDS011;6979;52.116;5.286;2024-01-15T04:29:26;7.63;;;1.30;;
13816;SDS011;6979;52.116;5.286;2024-01-15T04:31:53;1.80;;;0.90;;
13816;SDS011;6979;52.116;5.286;2024-01-15T04:34:20;3.33;;;1.33;;
13816;SDS011;6979;52.116;5.286;2024-01-15T04:36:47;3.20;;;1.10;;
13816;SDS011;6979;52.116;5.286;2024-01-15T04:39:15;2.30;;;0.97;;
13816;SDS011;6979;52.116;5.286;2024-01-15T04:41:42;3.33;;;1.63;;
13816;SDS011;6979;52.116;5.286;2024-01-15T04:44:09;4.57;;;2.00;;
13816;SDS011;6979;52.116;5.286;2024-01-15T04:46:36;2.70;;;1.80;;
13816;SDS011;6979;52.116;5.286;2024-01-15T04:49:05;6.17;;;3.70;;
13816;SDS011;6979;52.116;5.286;2024-01-15T04:51:33;5.43;;;4.37;;
13816;SDS011;6979;52.116;5.286;2024-01-15T04:54:00;4.43;;;3.47;;
13816;SDS011;6979;52.116;5.286;2024-01-15T04:56:29;3.63;;;2.17;;
13816;SDS011;6979;52.116;5.286;2024-01-15T04:58:55;1.50;;;1.27;;
13816;SDS011;6979;52.116;5.286;2024-01-15T05:01:22;2.97;;;1.67;;
13816;SDS011;6979;52.116;5.286;2024-01-15T05:03:55;4.00;;;1.13;;
13816;SDS011;6979;52.116;5.286;2024-01-15T05:06:22;4.00;;;1.70;;
13816;SDS011;6979;52.116;5.286;2024-01-15T05:08:49;2.47;;;0.90;;
13816;SDS011;6979;52.116;5.286;2024-01-15T05:11:16;4.80;;;1.37;;
13816;SDS011;6979;52.116;5.286;2024-01-15T05:13:44;3.77;;;1.20;;
13816;SDS011;6979;52.116;5.286;2024-01-15T05:16:11;1.53;;;1.00;;
13816;SDS011;6979;52.116;5.286;2024-01-15T05:18:38;3.50;;;0.80;;
13816;SDS011;6979;52.116;5.286;2024-01-15T05:21:05;3.63;;;1.47;;
13816;SDS011;6979;52.116;5.286;2024-01-15T05:23:31;3.43;;;1.47;;
13816;SDS011;6979;52.116;5.286;2024-01-15T05:26:01;2.80;;;1.17;;
13816;SDS011;6979;52.116;5.286;2024-01-15T05:28:28;2.33;;;1.10;;
13816;SDS011;6979;52.116;5.286;2024-01-15T05:30:56;1.20;;;0.70;;
13816;SDS011;6979;52.116;5.286;2024-01-15T05:33:23;4.43;;;1.03;;
13816;SDS011;6979;52.116;5.286;2024-01-15T05:35:50;2.73;;;1.10;;
13816;SDS011;6979;52.116;5.286;2024-01-15T05:38:17;4.30;;;1.37;;
13816;SDS011;6979;52.116;5.286;2024-01-15T05:40:44;2.70;;;1.00;;
13816;SDS011;6979;52.116;5.286;2024-01-15T05:43:12;5.43;;;1.53;;
13816;SDS011;6979;52.116;5.286;2024-01-15T05:45:38;4.60;;;1.47;;
13816;SDS011;6979;52.116;5.286;2024-01-15T05:48:10;3.13;;;1.30;;
13816;SDS011;6979;52.116;5.286;2024-01-15T05:50:38;2.23;;;1.10;;
13816;SDS011;6979;52.116;5.286;2024-01-15T05:53:05;2.30;;;0.97;;
13816;SDS011;6979;52.116;5.286;2024-01-15T05:55:32;3.23;;;1.13;;
13816;SDS011;6979;52.116;5.286;2024-01-15T05:57:58;2.80;;;1.00;;
13816;SDS011;6979;52.116;5.286;2024-01-15T06:00:25;1.67;;;0.70;;
13816;SDS011;6979;52.116;5.286;2024-01-15T06:02:52;3.03;;;1.03;;
13816;SDS011;6979;52.116;5.286;2024-01-15T06:05:20;2.80;;;0.83;;
13816;SDS011;6979;52.116;5.286;2024-01-15T06:07:47;2.43;;;1.03;;
13816;SDS011;6979;52.116;5.286;2024-01-15T06:10:17;1.97;;;1.00;;
13816;SDS011;6979;52.116;5.286;2024-01-15T06:12:44;1.60;;;0.80;;
13816;SDS011;6979;52.116;5.286;2024-01-15T06:15:10;1.43;;;0.73;;
13816;SDS011;6979;52.116;5.286;2024-01-15T06:17:38;2.07;;;0.90;;
13816;SDS011;6979;52.116;5.286;2024-01-15T06:20:05;1.33;;;0.70;;
13816;SDS011;6979;52.116;5.286;2024-01-15T06:22:35;1.97;;;1.30;;
13816;SDS011;6979;52.116;5.286;2024-01-15T06:25:04;4.37;;;0.93;;
13816;SDS011;6979;52.116;5.286;2024-01-15T06:27:32;2.30;;;1.17;;
13816;SDS011;6979;52.116;5.286;2024-01-15T06:29:59;1.67;;;0.97;;
13816;SDS011;6979;52.116;5.286;2024-01-15T06:32:27;1.10;;;0.90;;
13816;SDS011;6979;52.116;5.286;2024-01-15T06:34:54;2.33;;;0.77;;
13816;SDS011;6979;52.116;5.286;2024-01-15T06:37:21;0.97;;;0.70;;
13816;SDS011;6979;52.116;5.286;2024-01-15T06:39:49;1.67;;;0.70;;
13816;SDS011;6979;52.116;5.286;2024-01-15T06:42:16;2.13;;;0.97;;
13816;SDS011;6979;52.116;5.286;2024-01-15T06:44:43;0.90;;;0.77;;
13816;SDS011;6979;52.116;5.286;2024-01-15T06:47:11;1.83;;;1.20;;
13816;SDS011;6979;52.116;5.286;2024-01-15T06:49:39;0.93;;;0.77;;
13816;SDS011;6979;52.116;5.286;2024-01-15T06:52:06;2.33;;;0.83;;
13816;SDS011;6979;52.116;5.286;2024-01-15T06:54:33;1.80;;;1.37;;
13816;SDS011;6979;52.116;5.286;2024-01-15T06:57:01;2.00;;;0.87;;
13816;SDS011;6979;52.116;5.286;2024-01-15T06:59:29;2.40;;;0.97;;
13816;SDS011;6979;52.116;5.286;2024-01-15T07:01:55;3.63;;;0.97;;
13816;SDS011;6979;52.116;5.286;2024-01-15T07:04:22;2.27;;;1.00;;
13816;SDS011;6979;52.116;5.286;2024-01-15T07:06:49;1.47;;;0.90;;
13816;SDS011;6979;52.116;5.286;2024-01-15T07:09:16;1.83;;;1.07;;
13816;SDS011;6979;52.116;5.286;2024-01-15T07:11:44;4.03;;;1.80;;
13816;SDS011;6979;52.116;5.286;2024-01-15T07:14:13;1.63;;;1.13;;
13816;SDS011;6979;52.116;5.286;2024-01-15T07:16:39;1.80;;;0.97;;
13816;SDS011;6979;52.116;5.286;2024-01-15T07:19:06;1.50;;;1.40;;
13816;SDS011;6979;52.116;5.286;2024-01-15T07:21:33;2.73;;;1.10;;
13816;SDS011;6979;52.116;5.286;2024-01-15T07:24:00;2.33;;;1.10;;
13816;SDS011;6979;52.116;5.286;2024-01-15T07:26:27;1.03;;;0.93;;
13816;SDS011;6979;52.116;5.286;2024-01-15T07:28:53;1.37;;;1.27;;
13816;SDS011;6979;52.116;5.286;2024-01-15T07:31:22;1.10;;;1.10;;
13816;SDS011;6979;52.116;5.286;2024-01-15T07:33:49;1.30;;;1.20;;
13816;SDS011;6979;52.116;5.286;2024-01-15T07:36:15;2.13;;;1.20;;
13816;SDS011;6979;52.116;5.286;2024-01-15T07:38:42;2.07;;;1.63;;
13816;SDS011;6979;52.116;5.286;2024-01-15T07:41:09;2.00;;;1.13;;
13816;SDS011;6979;52.116;5.286;2024-01-15T07:43:37;2.73;;;1.30;;
13816;SDS011;6979;52.116;5.286;2024-01-15T07:46:05;1.33;;;1.23;;
13816;SDS011;6979;52.116;5.286;2024-01-15T07:48:34;1.63;;;1.53;;
13816;SDS011;6979;52.116;5.286;2024-01-15T07:51:01;2.73;;;1.60;;
13816;SDS011;6979;52.116;5.286;2024-01-15T07:53:29;1.70;;;1.43;;
13816;SDS011;6979;52.116;5.286;2024-01-15T07:55:56;2.33;;;1.50;;
13816;SDS011;6979;52.116;5.286;2024-01-15T07:58:23;4.83;;;1.90;;
13816;SDS011;6979;52.116;5.286;2024-01-15T08:00:50;3.43;;;1.87;;
13816;SDS011;6979;52.116;5.286;2024-01-15T08:03:20;2.20;;;1.40;;
13816;SDS011;6979;52.116;5.286;2024-01-15T08:05:48;1.87;;;1.53;;
13816;SDS011;6979;52.116;5.286;2024-01-15T08:08:17;2.47;;;1.60;;
13816;SDS011;6979;52.116;5.286;2024-01-15T08:10:46;1.63;;;1.30;;
13816;SDS011;6979;52.116;5.286;2024-01-15T08:13:13;2.23;;;2.03;;
13816;SDS011;6979;52.116;5.286;2024-01-15T08:15:40;2.53;;;1.43;;
13816;SDS011;6979;52.116;5.286;2024-01-15T08:18:08;3.10;;;1.43;;
13816;SDS011;6979;52.116;5.286;2024-01-15T08:20:35;1.90;;;1.40;;
13816;SDS011;6979;52.116;5.286;2024-01-15T08:23:03;1.27;;;1.20;;
13816;SDS011;6979;52.116;5.286;2024-01-15T08:25:30;2.87;;;2.10;;
13816;SDS011;6979;52.116;5.286;2024-01-15T08:28:00;1.63;;;1.23;;
13816;SDS011;6979;52.116;5.286;2024-01-15T08:30:27;1.90;;;1.40;;
13816;SDS011;6979;52.116;5.286;2024-01-15T08:32:54;4.40;;;2.00;;
13816;SDS011;6979;52.116;5.286;2024-01-15T08:35:21;2.47;;;1.30;;
13816;SDS011;6979;52.116;5.286;2024-01-15T08:37:48;6.10;;;1.50;;
13816;SDS011;6979;52.116;5.286;2024-01-15T08:40:16;2.90;;;1.27;;
13816;SDS011;6979;52.116;5.286;2024-01-15T08:42:43;4.20;;;1.57;;
13816;SDS011;6979;52.116;5.286;2024-01-15T08:45:11;3.67;;;1.70;;
13816;SDS011;6979;52.116;5.286;2024-01-15T08:47:38;2.10;;;1.20;;
13816;SDS011;6979;52.116;5.286;2024-01-15T08:50:06;1.40;;;1.20;;
13816;SDS011;6979;52.116;5.286;2024-01-15T08:52:37;2.13;;;1.50;;
13816;SDS011;6979;52.116;5.286;2024-01-15T08:55:05;1.40;;;1.30;;
13816;SDS011;6979;52.116;5.286;2024-01-15T08:57:33;4.73;;;1.57;;
13816;SDS011;6979;52.116;5.286;2024-01-15T09:00:03;2.70;;;1.47;;
13816;SDS011;6979;52.116;5.286;2024-01-15T09:02:33;5.80;;;1.40;;
13816;SDS011;6979;52.116;5.286;2024-01-15T09:05:00;3.53;;;1.30;;
13816;SDS011;6979;52.116;5.286;2024-01-15T09:07:29;5.30;;;2.63;;
13816;SDS011;6979;52.116;5.286;2024-01-15T09:09:56;2.87;;;1.77;;
13816;SDS011;6979;52.116;5.286;2024-01-15T09:12:24;4.87;;;1.40;;
13816;SDS011;6979;52.116;5.286;2024-01-15T09:14:52;2.20;;;1.13;;
13816;SDS011;6979;52.116;5.286;2024-01-15T09:17:19;2.57;;;1.03;;
13816;SDS011;6979;52.116;5.286;2024-01-15T09:19:46;5.27;;;1.20;;
13816;SDS011;6979;52.116;5.286;2024-01-15T09:22:14;2.20;;;1.13;;
13816;SDS011;6979;52.116;5.286;2024-01-15T09:24:43;1.90;;;0.90;;
13816;SDS011;6979;52.116;5.286;2024-01-15T09:27:11;1.83;;;0.93;;
13816;SDS011;6979;52.116;5.286;2024-01-15T09:29:38;4.73;;;1.23;;
13816;SDS011;6979;52.116;5.286;2024-01-15T09:32:08;2.57;;;1.00;;
13816;SDS011;6979;52.116;5.286;2024-01-15T09:34:35;4.80;;;1.20;;
13816;SDS011;6979;52.116;5.286;2024-01-15T09:37:02;2.10;;;1.00;;
13816;SDS011;6979;52.116;5.286;2024-01-15T09:39:29;4.37;;;1.27;;
13816;SDS011;6979;52.116;5.286;2024-01-15T09:41:57;1.37;;;1.23;;
13816;SDS011;6979;52.116;5.286;2024-01-15T09:44:24;3.50;;;1.33;;
13816;SDS011;6979;52.116;5.286;2024-01-15T09:46:56;5.57;;;1.80;;
13816;SDS011;6979;52.116;5.286;2024-01-15T09:49:28;5.43;;;2.03;;
13816;SDS011;6979;52.116;5.286;2024-01-15T09:51:57;3.10;;;1.73;;
13816;SDS011;6979;52.116;5.286;2024-01-15T09:54:24;7.13;;;3.37;;
13816;SDS011;6979;52.116;5.286;2024-01-15T09:56:52;5.43;;;2.47;;
13816;SDS011;6979;52.116;5.286;2024-01-15T09:59:20;6.03;;;3.27;;
13816;SDS011;6979;52.116;5.286;2024-01-15T10:01:51;5.23;;;2.30;;
13816;SDS011;6979;52.116;5.286;2024-01-15T10:04:25;3.47;;;2.00;;
13816;SDS011;6979;52.116;5.286;2024-01-15T10:06:54;5.30;;;2.53;;
13816;SDS011;6979;52.116;5.286;2024-01-15T10:09:22;6.43;;;1.90;;
13816;SDS011;6979;52.116;5.286;2024-01-15T10:11:52;2.77;;;1.60;;
13816;SDS011;6979;52.116;5.286;2024-01-15T10:14:19;4.97;;;2.33;;
13816;SDS011;6979;52.116;5.286;2024-01-15T10:16:46;3.57;;;1.50;;
13816;SDS011;6979;52.116;5.286;2024-01-15T10:19:13;3.17;;;1.63;;
13816;SDS011;6979;52.116;5.286;2024-01-15T10:21:43;3.93;;;1.03;;
13816;SDS011;6979;52.116;5.286;2024-01-15T10:24:11;2.30;;;1.27;;
13816;SDS011;6979;52.116;5.286;2024-01-15T10:26:38;4.67;;;1.30;;
13816;SDS011;6979;52.116;5.286;2024-01-15T10:29:05;2.93;;;1.47;;
13816;SDS011;6979;52.116;5.286;2024-01-15T10:31:32;6.40;;;1.73;;
13816;SDS011;6979;52.116;5.286;2024-01-15T10:34:09;2.37;;;1.50;;
13816;SDS011;6979;52.116;5.286;2024-01-15T10:36:38;5.23;;;1.83;;
13816;SDS011;6979;52.116;5.286;2024-01-15T10:39:06;3.17;;;1.27;;
13816;SDS011;6979;52.116;5.286;2024-01-15T10:41:35;4.37;;;1.37;;
13816;SDS011;6979;52.116;5.286;2024-01-15T10:44:01;3.87;;;1.40;;
13816;SDS011;6979;52.116;5.286;2024-01-15T10:46:29;3.77;;;1.27;;
13816;SDS011;6979;52.116;5.286;2024-01-15T10:48:56;4.60;;;1.60;;
13816;SDS011;6979;52.116;5.286;2024-01-15T10:51:23;3.33;;;1.47;;
13816;SDS011;6979;52.116;5.286;2024-01-15T10:53:51;4.93;;;1.70;;
13816;SDS011;6979;52.116;5.286;2024-01-15T10:56:22;3.07;;;1.50;;
13816;SDS011;6979;52.116;5.286;2024-01-15T10:58:54;4.50;;;1.93;;
13816;SDS011;6979;52.116;5.286;2024-01-15T11:01:22;4.53;;;1.27;;
13816;SDS011;6979;52.116;5.286;2024-01-15T11:03:49;4.93;;;1.70;;
13816;SDS011;6979;52.116;5.286;2024-01-15T11:06:16;2.43;;;1.10;;
13816;SDS011;6979;52.116;5.286;2024-01-15T11:08:44;2.03;;;1.10;;
13816;SDS011;6979;52.116;5.286;2024-01-15T11:11:12;2.97;;;1.43;;
13816;SDS011;6979;52.116;5.286;2024-01-15T11:13:46;3.07;;;1.10;;
13816;SDS011;6979;52.116;5.286;2024-01-15T11:16:18;3.07;;;1.10;;
13816;SDS011;6979;52.116;5.286;2024-01-15T11:19:03;3.00;;;1.07;;
13816;SDS011;6979;52.116;5.286;2024-01-15T11:21:33;5.53;;;1.03;;
13816;SDS011;6979;52.116;5.286;2024-01-15T11:24:08;3.53;;;0.70;;
13816;SDS011;6979;52.116;5.286;2024-01-15T11:26:38;0.80;;;0.80;;
13816;SDS011;6979;52.116;5.286;2024-01-15T11:29:28;1.83;;;0.73;;
13816;SDS011;6979;52.116;5.286;2024-01-15T11:31:58;2.43;;;0.80;;
13816;SDS011;6979;52.116;5.286;2024-01-15T11:37:23;2.03;;;0.90;;
13816;SDS011;6979;52.116;5.286;2024-01-15T11:39:52;1.63;;;0.97;;
13816;SDS011;6979;52.116;5.286;2024-01-15T11:42:20;1.30;;;0.80;;
13816;SDS011;6979;52.116;5.286;2024-01-15T11:44:48;2.83;;;1.00;;
13816;SDS011;6979;52.116;5.286;2024-01-15T11:50:32;3.30;;;1.30;;
13816;SDS011;6979;52.116;5.286;2024-01-15T11:53:00;3.13;;;1.00;;
13816;SDS011;6979;52.116;5.286;2024-01-15T11:55:29;1.33;;;0.97;;
13816;SDS011;6979;52.116;5.286;2024-01-15T11:58:00;1.57;;;1.10;;
13816;SDS011;6979;52.116;5.286;2024-01-15T12:00:28;2.53;;;0.90;;
13816;SDS011;6979;52.116;5.286;2024-01-15T12:02:55;2.17;;;0.70;;
13816;SDS011;6979;52.116;5.286;2024-01-15T12:05:28;1.70;;;0.73;;
13816;SDS011;6979;52.116;5.286;2024-01-15T12:07:57;1.53;;;0.80;;
13816;SDS011;6979;52.116;5.286;2024-01-15T12:10:24;2.37;;;1.33;;
13816;SDS011;6979;52.116;5.286;2024-01-15T12:12:58;1.73;;;1.00;;
13816;SDS011;6979;52.116;5.286;2024-01-15T12:15:27;1.57;;;0.83;;
13816;SDS011;6979;52.116;5.286;2024-01-15T12:17:55;3.03;;;1.10;;
13816;SDS011;6979;52.116;5.286;2024-01-15T12:20:23;2.77;;;1.00;;
13816;SDS011;6979;52.116;5.286;2024-01-15T12:22:54;1.00;;;0.80;;
13816;SDS011;6979;52.116;5.286;2024-01-15T12:25:23;2.00;;;1.10;;
13816;SDS011;6979;52.116;5.286;2024-01-15T12:27:52;1.23;;;0.70;;
13816;SDS011;6979;52.116;5.286;2024-01-15T12:30:19;1.93;;;0.90;;
13816;SDS011;6979;52.116;5.286;2024-01-15T12:32:49;2.73;;;1.00;;
13816;SDS011;6979;52.116;5.286;2024-01-15T12:35:16;2.37;;;0.80;;
13816;SDS011;6979;52.116;5.286;2024-01-15T12:37:44;0.73;;;0.73;;
13816;SDS011;6979;52.116;5.286;2024-01-15T12:40:12;1.60;;;0.80;;
13816;SDS011;6979;52.116;5.286;2024-01-15T12:42:44;3.00;;;1.30;;
13816;SDS011;6979;52.116;5.286;2024-01-15T12:45:11;2.40;;;1.17;;
13816;SDS011;6979;52.116;5.286;2024-01-15T12:47:38;1.20;;;0.70;;
13816;SDS011;6979;52.116;5.286;2024-01-15T12:50:06;1.93;;;0.77;;
13816;SDS011;6979;52.116;5.286;2024-01-15T12:52:34;1.03;;;0.73;;
13816;SDS011;6979;52.116;5.286;2024-01-15T12:55:03;4.20;;;1.20;;
13816;SDS011;6979;52.116;5.286;2024-01-15T12:57:31;3.47;;;0.60;;
13816;SDS011;6979;52.116;5.286;2024-01-15T12:59:59;0.80;;;0.70;;
13816;SDS011;6979;52.116;5.286;2024-01-15T13:02:25;3.37;;;0.90;;
13816;SDS011;6979;52.116;5.286;2024-01-15T13:04:52;2.27;;;0.97;;
13816;SDS011;6979;52.116;5.286;2024-01-15T13:07:20;4.83;;;1.10;;
13816;SDS011;6979;52.116;5.286;2024-01-15T13:09:47;2.73;;;1.17;;
13816;SDS011;6979;52.116;5.286;2024-01-15T13:12:17;2.13;;;1.07;;
13816;SDS011;6979;52.116;5.286;2024-01-15T13:14:45;3.67;;;1.73;;
13816;SDS011;6979;52.116;5.286;2024-01-15T13:17:13;2.27;;;0.97;;
13816;SDS011;6979;52.116;5.286;2024-01-15T13:19:41;2.20;;;1.27;;
13816;SDS011;6979;52.116;5.286;2024-01-15T13:22:11;2.67;;;1.50;;
13816;SDS011;6979;52.116;5.286;2024-01-15T13:24:41;4.13;;;1.70;;
13816;SDS011;6979;52.116;5.286;2024-01-15T13:27:08;3.27;;;1.20;;
13816;SDS011;6979;52.116;5.286;2024-01-15T13:29:35;4.23;;;1.10;;
13816;SDS011;6979;52.116;5.286;2024-01-15T13:32:03;1.80;;;1.10;;
13816;SDS011;6979;52.116;5.286;2024-01-15T13:34:31;5.67;;;1.53;;
13816;SDS011;6979;52.116;5.286;2024-01-15T13:36:59;3.33;;;1.27;;
13816;SDS011;6979;52.116;5.286;2024-01-15T13:39:26;1.43;;;1.00;;
13816;SDS011;6979;52.116;5.286;2024-01-15T13:41:54;3.20;;;1.07;;
13816;SDS011;6979;52.116;5.286;2024-01-15T13:44:21;1.63;;;1.00;;
13816;SDS011;6979;52.116;5.286;2024-01-15T13:46:48;4.20;;;1.30;;
13816;SDS011;6979;52.116;5.286;2024-01-15T13:49:16;5.13;;;1.87;;
13816;SDS011;6979;52.116;5.286;2024-01-15T13:51:46;3.73;;;1.50;;
13816;SDS011;6979;52.116;5.286;2024-01-15T13:54:13;3.30;;;1.23;;
13816;SDS011;6979;52.116;5.286;2024-01-15T13:56:43;1.70;;;1.30;;
13816;SDS011;6979;52.116;5.286;2024-01-15T13:59:12;1.97;;;1.77;;
13816;SDS011;6979;52.116;5.286;2024-01-15T14:01:39;3.50;;;1.50;;
13816;SDS011;6979;52.116;5.286;2024-01-15T14:04:06;2.70;;;1.47;;
13816;SDS011;6979;52.116;5.286;2024-01-15T14:06:34;2.73;;;1.33;;
13816;SDS011;6979;52.116;5.286;2024-01-15T14:09:01;5.20;;;1.37;;
13816;SDS011;6979;52.116;5.286;2024-01-15T14:11:29;4.57;;;1.70;;
13816;SDS011;6979;52.116;5.286;2024-01-15T14:13:56;4.83;;;1.40;;
13816;SDS011;6979;52.116;5.286;2024-01-15T14:16:23;4.13;;;2.13;;
13816;SDS011;6979;52.116;5.286;2024-01-15T14:18:50;5.23;;;1.50;;
13816;SDS011;6979;52.116;5.286;2024-01-15T14:21:17;2.33;;;1.20;;
13816;SDS011;6979;52.116;5.286;2024-01-15T14:23:45;5.53;;;1.50;;
13816;SDS011;6979;52.116;5.286;2024-01-15T14:26:12;5.87;;;1.77;;
13816;SDS011;6979;52.116;5.286;2024-01-15T14:28:39;2.83;;;1.30;;
13816;SDS011;6979;52.116;5.286;2024-01-15T14:31:06;4.93;;;1.50;;
13816;SDS011;6979;52.116;5.286;2024-01-15T14:33:32;4.20;;;1.80;;
13816;SDS011;6979;52.116;5.286;2024-01-15T14:35:59;4.60;;;1.40;;
13816;SDS011;6979;52.116;5.286;2024-01-15T14:38:26;6.67;;;1.93;;
13816;SDS011;6979;52.116;5.286;2024-01-15T14:40:55;2.00;;;1.17;;
13816;SDS011;6979;52.116;5.286;2024-01-15T14:43:22;4.20;;;1.60;;
13816;SDS011;6979;52.116;5.286;2024-01-15T14:45:49;5.27;;;1.73;;
13816;SDS011;6979;52.116;5.286;2024-01-15T14:48:19;6.27;;;1.97;;
13816;SDS011;6979;52.116;5.286;2024-01-15T14:50:45;3.10;;;1.70;;
13816;SDS011;6979;52.116;5.286;2024-01-15T14:53:12;3.23;;;1.53;;
13816;SDS011;6979;52.116;5.286;2024-01-15T14:55:39;4.57;;;1.87;;
13816;SDS011;6979;52.116;5.286;2024-01-15T14:58:10;2.77;;;1.30;;
13816;SDS011;6979;52.116;5.286;2024-01-15T15:00:38;5.90;;;2.40;;
13816;SDS011;6979;52.116;5.286;2024-01-15T15:03:07;5.73;;;2.10;;
13816;SDS011;6979;52.116;5.286;2024-01-15T15:05:35;4.47;;;1.60;;
13816;SDS011;6979;52.116;5.286;2024-01-15T15:08:05;6.17;;;1.60;;
13816;SDS011;6979;52.116;5.286;2024-01-15T15:10:33;6.27;;;2.53;;